Rodoc, Louisiana
Current Conditions -  °F | °C
As of 7:35 PM on Friday 19 Dec 2014 (Local Time) from KOPL Reporting Station
Drizzle Drizzle  
Wind Chill: 45°   Ceiling: 600
Heat Index: 48°   Visibility: 10mi
Dew Point: 47°   Wind: 8mph
Humidity: 96%   Direction: 80°E
Pressure: 30.08"   Gusts: NA
Location:  30.9294°N, 91.9479°W
Report Text: KOPL 200135Z AUTO 08007KT 10SM -DZ OVC006 09/08 A3008 RMK AO2 T00900084
Loading
Personal Weather Stations






























Interactive Weather Map New forecast layout! Learn more

10-Day Weather Forecast

Advertisements
Track Severe Weather on mobile